Time;durP1;ratioP1;P1;durP2;ratioP2;P2;SDS_P1;SDS_P2;PMS_P1;PMS_P2;Temp;Humidity;BMP_temperature;BMP_pressure;BME280_temperature;BME280_humidity;BME280_pressure;Samples;Min_cycle;Max_cycle;Signal;HPM_P1;HPM_P2
2022/07/07 00:02:12;;;;;;;4.50;4.20;;;;;;;15.56;100.00;99674.28;5085929;28;20254;-78
2022/07/07 00:04:39;;;;;;;4.87;4.47;;;;;;;15.57;100.00;99678.63;5088415;28;20765;-78
2022/07/07 00:07:05;;;;;;;4.70;4.40;;;;;;;15.55;100.00;99683.44;5091739;28;20232;-78
2022/07/07 00:09:32;;;;;;;4.33;3.93;;;;;;;15.55;100.00;99680.72;5094194;28;20630;-77
2022/07/07 00:11:59;;;;;;;4.57;4.27;;;;;;;15.50;100.00;99675.22;5085472;28;20230;-77
2022/07/07 00:14:26;;;;;;;4.60;4.30;;;;;;;15.50;100.00;99683.34;5087218;28;20232;-77
2022/07/07 00:16:52;;;;;;;4.70;4.30;;;;;;;15.45;100.00;99685.97;5090339;28;20239;-77
2022/07/07 00:19:19;;;;;;;4.70;4.40;;;;;;;15.33;100.00;99672.59;5086439;28;20239;-77
2022/07/07 00:21:46;;;;;;;4.80;4.47;;;;;;;15.26;100.00;99674.63;5072494;28;20234;-78
2022/07/07 00:24:12;;;;;;;4.47;4.13;;;;;;;15.24;100.00;99673.28;5080199;28;20236;-77
2022/07/07 00:26:39;;;;;;;4.37;4.13;;;;;;;15.23;100.00;99668.94;5088250;28;20230;-78
2022/07/07 00:29:06;;;;;;;4.73;4.33;;;;;;;15.21;100.00;99668.38;5066388;28;20224;-78
2022/07/07 00:31:33;;;;;;;4.50;4.20;;;;;;;15.16;100.00;99658.31;5088618;28;20293;-78
2022/07/07 00:34:00;;;;;;;4.33;4.03;;;;;;;15.15;100.00;99664.78;5082660;28;20282;-77
2022/07/07 00:36:27;;;;;;;4.90;4.47;;;;;;;15.13;100.00;99661.50;5080906;28;20248;-78
2022/07/07 00:38:54;;;;;;;4.83;4.50;;;;;;;15.07;100.00;99664.41;5081421;28;20307;-79
2022/07/07 00:41:21;;;;;;;4.93;4.53;;;;;;;15.00;100.00;99664.56;5074732;28;20832;-78
2022/07/07 00:43:47;;;;;;;5.00;4.50;;;;;;;14.91;100.00;99647.97;5078586;28;20323;-79
2022/07/07 00:46:14;;;;;;;6.03;4.47;;;;;;;14.88;100.00;99656.53;5089425;28;20258;-77
2022/07/07 00:48:41;;;;;;;5.57;5.00;;;;;;;14.82;100.00;99659.44;5081296;28;20253;-77
2022/07/07 00:51:12;;;;;;;4.93;4.53;;;;;;;14.78;100.00;99661.81;5098685;28;20678;-76
2022/07/07 00:53:39;;;;;;;4.70;4.20;;;;;;;14.76;100.00;99663.09;5071365;28;20323;-80
2022/07/07 00:56:06;;;;;;;4.70;4.30;;;;;;;14.71;100.00;99658.44;5103075;28;20318;-79
2022/07/07 00:58:33;;;;;;;4.93;4.53;;;;;;;14.69;100.00;99657.88;5077991;28;20685;-79
2022/07/07 01:01:01;;;;;;;4.97;4.57;;;;;;;14.63;100.00;99656.16;5093228;28;20269;-78
2022/07/07 01:03:29;;;;;;;4.73;4.33;;;;;;;14.59;100.00;99651.50;5076460;28;20221;-78
2022/07/07 01:05:57;;;;;;;5.53;4.30;;;;;;;14.54;100.00;99653.06;5089656;28;20228;-78
2022/07/07 01:08:24;;;;;;;4.70;4.40;;;;;;;14.48;100.00;99654.03;5075533;28;20308;-78
2022/07/07 01:10:51;;;;;;;5.00;4.60;;;;;;;14.46;100.00;99645.34;5099268;28;20314;-77
2022/07/07 01:13:17;;;;;;;5.03;4.63;;;;;;;14.43;100.00;99645.03;5094268;28;20712;-77
2022/07/07 01:15:44;;;;;;;4.87;4.57;;;;;;;14.41;100.00;99647.19;5088690;28;20232;-77
2022/07/07 01:18:11;;;;;;;5.03;4.63;;;;;;;14.37;100.00;99643.34;5093753;28;20237;-78
2022/07/07 01:20:40;;;;;;;7.57;5.13;;;;;;;14.29;100.00;99638.28;5099019;28;20297;-77
2022/07/07 01:23:07;;;;;;;5.03;4.63;;;;;;;14.27;100.00;99640.44;5066346;28;20631;-77
2022/07/07 01:25:33;;;;;;;5.00;4.70;;;;;;;14.21;100.00;99644.91;5056923;28;20232;-77
2022/07/07 01:28:00;;;;;;;5.03;4.67;;;;;;;14.19;100.00;99646.19;5083295;28;20224;-77
2022/07/07 01:30:27;;;;;;;5.73;5.23;;;;;;;14.13;100.00;99631.84;5082725;28;20251;-76
2022/07/07 01:32:53;;;;;;;4.93;4.63;;;;;;;14.10;100.00;99643.91;5093329;28;20319;-78
2022/07/07 01:35:20;;;;;;;5.40;4.93;;;;;;;14.04;100.00;99642.16;5085879;28;20316;-78
2022/07/07 01:37:47;;;;;;;5.57;5.03;;;;;;;14.05;100.00;99635.72;5091998;28;20307;-78
2022/07/07 01:40:13;;;;;;;5.53;5.13;;;;;;;14.00;100.00;99635.63;5083110;28;20316;-77
2022/07/07 01:42:40;;;;;;;5.23;4.83;;;;;;;14.01;100.00;99631.88;5093527;28;20246;-78
2022/07/07 01:45:07;;;;;;;5.00;4.70;;;;;;;13.99;100.00;99627.81;5092838;28;20306;-78
2022/07/07 01:47:34;;;;;;;4.97;4.60;;;;;;;14.00;100.00;99632.94;5090811;28;20238;-79
2022/07/07 01:50:01;;;;;;;5.40;5.00;;;;;;;13.98;100.00;99629.69;5076120;28;20323;-78
2022/07/07 01:52:27;;;;;;;5.37;4.97;;;;;;;14.00;100.00;99630.25;5090240;28;20231;-78
2022/07/07 01:54:54;;;;;;;5.00;4.70;;;;;;;13.94;100.00;99625.84;5087930;28;20306;-76
2022/07/07 01:57:21;;;;;;;5.40;5.00;;;;;;;13.90;100.00;99632.78;5087695;28;20344;-77
2022/07/07 01:59:47;;;;;;;5.20;4.80;;;;;;;13.90;100.00;99631.94;5077234;28;20215;-77
2022/07/07 02:02:14;;;;;;;5.40;4.90;;;;;;;13.92;100.00;99633.34;5094601;28;20232;-78
2022/07/07 02:04:41;;;;;;;5.27;4.77;;;;;;;13.97;100.00;99635.31;5078559;28;20290;-77
2022/07/07 02:07:08;;;;;;;5.10;4.70;;;;;;;13.99;100.00;99636.72;5100253;28;20307;-77
2022/07/07 02:09:34;;;;;;;5.80;5.20;;;;;;;14.02;100.00;99635.41;5093141;28;20628;-77
2022/07/07 02:12:01;;;;;;;5.23;4.83;;;;;;;14.06;100.00;99631.16;5093121;28;20316;-77
2022/07/07 02:14:28;;;;;;;5.60;5.10;;;;;;;14.11;100.00;99624.00;5086025;28;20674;-76
2022/07/07 02:16:55;;;;;;;5.10;4.70;;;;;;;14.10;100.00;99619.66;5081588;28;20239;-75
2022/07/07 02:19:21;;;;;;;5.23;4.83;;;;;;;14.13;100.00;99612.97;5089568;28;20724;-76
2022/07/07 02:21:48;;;;;;;5.40;4.90;;;;;;;14.15;100.00;99620.81;5077748;28;20315;-76
2022/07/07 02:24:15;;;;;;;5.00;4.60;;;;;;;14.16;100.00;99619.75;5088353;28;20239;-76
2022/07/07 02:26:41;;;;;;;5.00;4.60;;;;;;;14.19;100.00;99611.16;5086169;28;20249;-77
2022/07/07 02:29:09;;;;;;;5.23;4.80;;;;;;;14.22;100.00;99626.88;5090315;28;20255;-77
2022/07/07 02:31:36;;;;;;;5.30;4.90;;;;;;;14.23;100.00;99615.81;5087722;28;20232;-77
2022/07/07 02:34:03;;;;;;;5.17;4.77;;;;;;;14.27;100.00;99619.69;5067726;28;20644;-76
2022/07/07 02:36:29;;;;;;;4.27;4.07;;;;;;;14.30;100.00;99626.47;5077519;28;20232;-77
2022/07/07 02:38:56;;;;;;;5.20;4.83;;;;;;;14.31;100.00;99623.53;5084878;28;20235;-77
2022/07/07 02:41:23;;;;;;;5.07;4.67;;;;;;;14.31;100.00;99625.41;5084401;28;20237;-77
2022/07/07 02:43:49;;;;;;;4.90;4.50;;;;;;;14.31;100.00;99628.91;5079287;28;20238;-77
2022/07/07 02:46:16;;;;;;;4.77;4.47;;;;;;;14.30;100.00;99637.25;5081822;28;20331;-77
2022/07/07 02:48:42;;;;;;;5.03;4.60;;;;;;;14.30;100.00;99637.25;5091003;28;20397;-77
2022/07/07 02:51:09;;;;;;;5.10;4.63;;;;;;;14.29;100.00;99638.28;5081719;28;20259;-77
2022/07/07 02:53:36;;;;;;;5.30;4.80;;;;;;;14.23;100.00;99632.00;5077145;28;20327;-79
2022/07/07 02:56:04;;;;;;;5.47;4.97;;;;;;;14.26;100.00;99639.59;5092800;28;20230;-78
2022/07/07 02:58:30;;;;;;;5.20;4.90;;;;;;;14.27;100.00;99627.78;5082407;28;20259;-77
2022/07/07 03:00:57;;;;;;;5.13;4.73;;;;;;;14.28;100.00;99628.56;5088854;28;20235;-78
2022/07/07 03:03:24;;;;;;;5.20;4.80;;;;;;;14.32;100.00;99627.03;5080679;28;20314;-79
2022/07/07 03:05:51;;;;;;;5.23;4.83;;;;;;;14.35;100.00;99624.66;5090884;28;20281;-76
2022/07/07 03:08:18;;;;;;;5.90;5.40;;;;;;;14.36;100.00;99628.22;5083115;28;20327;-78
2022/07/07 03:10:45;;;;;;;5.00;4.47;;;;;;;14.40;100.00;99629.38;5088014;28;20282;-78
2022/07/07 03:13:11;;;;;;;4.87;4.57;;;;;;;14.45;100.00;99624.88;5082839;28;20304;-77
2022/07/07 03:15:38;;;;;;;5.40;5.00;;;;;;;14.47;100.00;99625.44;5080678;28;20229;-78
2022/07/07 03:18:05;;;;;;;5.63;5.13;;;;;;;14.50;100.00;99634.94;5072260;28;20732;-78
2022/07/07 03:20:32;;;;;;;5.80;5.23;;;;;;;14.52;100.00;99632.78;5094693;28;20262;-77
2022/07/07 03:22:58;;;;;;;5.53;5.13;;;;;;;14.58;100.00;99637.22;5085382;28;20318;-77
2022/07/07 03:25:25;;;;;;;5.60;5.20;;;;;;;14.60;100.00;99634.28;5069523;28;20644;-77
2022/07/07 03:27:52;;;;;;;6.30;5.43;;;;;;;14.67;100.00;99633.03;5087965;28;20281;-77
2022/07/07 03:30:18;;;;;;;6.30;5.70;;;;;;;14.74;100.00;99622.91;5077776;28;20262;-78
2022/07/07 03:32:45;;;;;;;5.80;5.33;;;;;;;14.81;100.00;99622.72;5092084;28;20239;-79
2022/07/07 03:35:12;;;;;;;5.37;5.03;;;;;;;14.88;100.00;99624.16;5093162;28;20605;-79
2022/07/07 03:37:39;;;;;;;5.67;5.27;;;;;;;14.95;100.00;99624.84;5085045;28;20228;-80
2022/07/07 03:40:06;;;;;;;5.50;5.10;;;;;;;15.02;100.00;99615.75;5093782;28;20232;-79
2022/07/07 03:42:33;;;;;;;6.10;5.60;;;;;;;15.08;100.00;99620.97;5086926;28;20262;-79
2022/07/07 03:45:00;;;;;;;5.87;5.40;;;;;;;15.15;100.00;99613.50;5070279;28;20242;-79
2022/07/07 03:47:26;;;;;;;5.70;4.87;;;;;;;15.20;100.00;99618.16;5085303;28;20881;-79
2022/07/07 03:49:53;;;;;;;5.73;5.10;;;;;;;15.22;100.00;99619.53;5094325;28;20235;-79
2022/07/07 03:52:20;;;;;;;5.23;4.83;;;;;;;15.26;100.00;99625.25;5090876;28;20236;-80
2022/07/07 03:54:47;;;;;;;5.67;5.17;;;;;;;15.26;100.00;99622.53;5087423;28;20602;-79
2022/07/07 03:57:14;;;;;;;5.40;4.90;;;;;;;15.35;100.00;99621.06;5074954;28;20239;-78
2022/07/07 03:59:40;;;;;;;5.67;5.17;;;;;;;15.40;100.00;99624.63;5084620;28;20757;-80
2022/07/07 04:02:08;;;;;;;5.57;5.17;;;;;;;15.44;100.00;99616.84;5093348;28;20231;-79
2022/07/07 04:04:35;;;;;;;5.53;4.60;;;;;;;15.51;100.00;99616.69;5081212;28;20220;-80
2022/07/07 04:07:02;;;;;;;5.33;4.97;;;;;;;15.55;100.00;99617.81;5088573;28;20738;-80
2022/07/07 04:09:28;;;;;;;5.37;4.97;;;;;;;15.55;100.00;99623.22;5081908;28;20290;-78
2022/07/07 04:11:55;;;;;;;5.87;5.37;;;;;;;15.62;100.00;99616.56;5088967;28;20637;-78
2022/07/07 04:14:22;;;;;;;5.43;5.03;;;;;;;15.57;100.00;99621.91;5095408;28;20223;-78
2022/07/07 04:16:48;;;;;;;5.40;5.00;;;;;;;15.61;100.00;99614.94;5092654;28;20314;-79
2022/07/07 04:19:15;;;;;;;4.93;4.63;;;;;;;15.68;100.00;99620.13;5091593;28;20231;-79
2022/07/07 04:21:42;;;;;;;5.20;4.80;;;;;;;15.71;100.00;99611.53;5077354;28;20244;-79
2022/07/07 04:24:09;;;;;;;5.80;5.20;;;;;;;15.73;100.00;99614.78;5093105;28;20231;-79
2022/07/07 04:26:36;;;;;;;5.57;5.00;;;;;;;15.75;100.00;99620.75;5103993;28;20690;-79
2022/07/07 04:29:03;;;;;;;5.30;4.90;;;;;;;15.77;100.00;99610.53;5098809;28;20231;-79
2022/07/07 04:31:30;;;;;;;9.03;8.23;;;;;;;15.82;100.00;99619.47;5098425;28;20252;-79
2022/07/07 04:33:56;;;;;;;7.50;6.87;;;;;;;15.86;100.00;99614.41;5096427;28;20719;-79
2022/07/07 04:36:23;;;;;;;6.50;6.00;;;;;;;15.93;100.00;99617.69;5094947;28;20748;-79
2022/07/07 04:38:51;;;;;;;6.47;5.87;;;;;;;16.05;100.00;99615.66;5092679;28;20225;-78
2022/07/07 04:41:18;;;;;;;6.50;5.83;;;;;;;16.22;100.00;99616.38;5074509;28;20691;-78
2022/07/07 04:43:44;;;;;;;6.00;5.50;;;;;;;16.34;100.00;99616.19;5105081;28;20575;-79
2022/07/07 04:46:11;;;;;;;5.90;5.30;;;;;;;16.46;100.00;99616.84;5087181;28;20609;-78
2022/07/07 04:48:38;;;;;;;5.63;5.13;;;;;;;16.53;100.00;99616.63;5091097;28;20350;-79
2022/07/07 04:51:05;;;;;;;5.57;5.17;;;;;;;16.59;100.00;99627.25;5092889;28;20242;-79
2022/07/07 04:53:31;;;;;;;5.77;5.20;;;;;;;16.65;100.00;99611.91;5089630;28;20315;-79
2022/07/07 04:55:58;;;;;;;5.50;5.00;;;;;;;16.69;100.00;99619.22;5090550;28;20220;-79
2022/07/07 04:58:25;;;;;;;5.80;5.20;;;;;;;16.79;100.00;99623.09;5096310;28;20235;-79
2022/07/07 05:00:52;;;;;;;5.60;4.70;;;;;;;16.87;100.00;99619.88;5087282;28;20355;-78
2022/07/07 05:03:26;;;;;;;5.10;4.70;;;;;;;16.90;100.00;99609.34;5098728;28;20203;-79
2022/07/07 05:05:53;;;;;;;6.10;5.43;;;;;;;16.95;100.00;99625.63;5103765;28;20228;-79
2022/07/07 05:08:20;;;;;;;4.93;4.63;;;;;;;17.00;100.00;99619.41;5099513;28;20223;-78
2022/07/07 05:10:46;;;;;;;5.27;4.83;;;;;;;17.06;100.00;99616.50;5091459;28;20267;-80
2022/07/07 05:13:13;;;;;;;5.40;4.80;;;;;;;17.23;100.00;99619.00;5098164;28;20236;-80
2022/07/07 05:15:40;;;;;;;5.20;4.70;;;;;;;17.40;100.00;99625.06;5104293;28;20261;-78
2022/07/07 05:18:06;;;;;;;5.53;5.00;;;;;;;17.63;100.00;99613.00;5105108;28;20263;-79
2022/07/07 05:20:33;;;;;;;5.07;4.53;;;;;;;17.77;100.00;99618.72;5094540;28;20258;-79
2022/07/07 05:23:00;;;;;;;4.97;4.47;;;;;;;17.85;100.00;99626.34;5102760;28;20287;-78
2022/07/07 05:25:27;;;;;;;4.57;4.17;;;;;;;17.95;100.00;99626.34;5099814;28;20223;-78
2022/07/07 05:27:54;;;;;;;5.37;4.87;;;;;;;17.90;100.00;99620.94;5071976;28;20244;-78
2022/07/07 05:30:20;;;;;;;4.37;4.07;;;;;;;17.99;100.00;99620.13;5088191;28;20824;-79
2022/07/07 05:32:47;;;;;;;5.83;4.60;;;;;;;18.08;100.00;99628.56;5070455;28;20220;-79
2022/07/07 05:35:14;;;;;;;4.27;3.87;;;;;;;18.20;100.00;99626.38;5098220;28;20242;-79
2022/07/07 05:37:41;;;;;;;4.43;4.13;;;;;;;18.31;100.00;99630.75;5093853;28;20258;-78
2022/07/07 05:40:08;;;;;;;6.27;4.60;;;;;;;18.47;100.00;99626.97;5100164;28;20232;-78
2022/07/07 05:42:35;;;;;;;5.00;4.50;;;;;;;18.74;100.00;99624.00;5091199;28;20228;-78
2022/07/07 05:45:03;;;;;;;4.60;3.93;;;;;;;18.91;100.00;99634.56;5102578;28;20237;-78
2022/07/07 05:47:29;;;;;;;4.33;3.93;;;;;;;19.10;100.00;99629.38;5095474;28;20728;-79
2022/07/07 05:49:56;;;;;;;5.90;4.13;;;;;;;19.19;100.00;99633.97;5088946;28;20286;-78
2022/07/07 05:52:23;;;;;;;4.97;3.93;;;;;;;19.39;100.00;99635.81;5093228;28;20350;-79
2022/07/07 05:54:49;;;;;;;4.30;3.90;;;;;;;19.42;100.00;99626.28;5087075;28;20280;-78
2022/07/07 05:57:16;;;;;;;5.93;3.67;;;;;;;19.53;100.00;99623.28;5097887;28;20250;-79
2022/07/07 05:59:43;;;;;;;4.43;4.03;;;;;;;19.56;100.00;99633.59;5100228;28;20268;-78
2022/07/07 06:02:09;;;;;;;4.20;3.80;;;;;;;19.60;100.00;99639.28;5096275;28;20238;-79
2022/07/07 06:04:36;;;;;;;3.90;3.60;;;;;;;19.72;100.00;99637.06;5055097;28;20604;-79
2022/07/07 06:07:04;;;;;;;3.93;3.73;;;;;;;19.74;100.00;99634.84;5088742;28;20258;-79
2022/07/07 06:09:30;;;;;;;3.90;3.60;;;;;;;19.89;100.00;99639.41;5079401;28;20729;-79
2022/07/07 06:11:58;;;;;;;4.00;3.70;;;;;;;20.02;100.00;99636.88;5092239;28;20258;-79
2022/07/07 06:14:26;;;;;;;4.43;3.93;;;;;;;19.99;100.00;99636.66;5065154;28;20308;-78
2022/07/07 06:16:53;;;;;;;4.10;3.80;;;;;;;19.98;100.00;99637.72;5099055;28;20233;-79
2022/07/07 06:19:20;;;;;;;4.57;4.03;;;;;;;20.04;100.00;99650.22;5100830;28;20264;-79
2022/07/07 06:21:46;;;;;;;4.60;4.20;;;;;;;20.11;100.00;99645.28;5091980;28;20226;-78
2022/07/07 06:24:13;;;;;;;5.43;4.33;;;;;;;20.13;100.00;99651.25;5079466;28;20236;-78
2022/07/07 06:26:40;;;;;;;4.53;4.10;;;;;;;20.27;100.00;99644.06;5082997;28;20235;-79
2022/07/07 06:29:07;;;;;;;5.33;4.47;;;;;;;20.41;100.00;99650.53;5095869;28;20266;-78
2022/07/07 06:31:33;;;;;;;4.33;4.07;;;;;;;20.56;100.00;99646.91;5082134;28;20285;-77
2022/07/07 06:34:00;;;;;;;6.20;4.30;;;;;;;20.82;100.00;99642.84;5086648;28;20595;-75
2022/07/07 06:36:27;;;;;;;4.43;4.07;;;;;;;21.19;100.00;99646.88;5090681;28;20227;-77
2022/07/07 06:38:54;;;;;;;4.10;3.80;;;;;;;21.56;100.00;99646.22;5097889;28;20229;-77
2022/07/07 06:41:33;;;;;;;4.03;3.67;;;;;;;21.95;100.00;99647.63;5090258;28;20273;-77
2022/07/07 06:44:00;;;;;;;3.97;3.50;;;;;;;22.11;100.00;99641.94;5088148;28;20235;-78
2022/07/07 06:46:26;;;;;;;5.73;4.00;;;;;;;22.25;100.00;99643.66;5093517;28;20309;-78
2022/07/07 06:48:53;;;;;;;5.63;3.80;;;;;;;22.21;100.00;99645.31;5087432;28;20252;-78
2022/07/07 06:51:20;;;;;;;4.60;4.10;;;;;;;22.29;100.00;99644.69;5092697;28;20262;-78
2022/07/07 06:53:46;;;;;;;4.57;4.18;;;;;;;22.35;100.00;99650.84;5094165;28;20256;-78
2022/07/07 06:56:13;;;;;;;4.40;4.00;;;;;;;22.52;100.00;99640.22;5090369;28;20269;-78
2022/07/07 06:58:40;;;;;;;4.30;3.90;;;;;;;22.74;100.00;99639.59;5092371;28;20247;-78
2022/07/07 07:01:07;;;;;;;4.50;4.10;;;;;;;22.99;96.10;99627.44;5092948;28;20712;-77
2022/07/07 07:03:33;;;;;;;4.50;4.10;;;;;;;23.02;95.82;99637.75;5088200;28;20314;-78
2022/07/07 07:06:02;;;;;;;4.35;3.90;;;;;;;23.09;95.29;99633.53;5088368;28;20596;-76
2022/07/07 07:08:28;;;;;;;5.18;3.80;;;;;;;23.04;95.13;99633.63;5091036;28;20324;-78
2022/07/07 07:10:55;;;;;;;4.35;3.88;;;;;;;23.13;92.99;99631.81;5092180;28;20700;-78
2022/07/07 07:13:21;;;;;;;3.90;3.60;;;;;;;23.23;91.68;99626.16;5089482;28;20239;-78
2022/07/07 07:15:48;;;;;;;5.25;3.80;;;;;;;23.24;91.75;99627.75;5091816;28;20221;-78
2022/07/07 07:18:15;;;;;;;3.65;3.35;;;;;;;23.41;89.64;99623.63;5085654;28;20253;-76
2022/07/07 07:20:42;;;;;;;3.60;3.20;;;;;;;23.46;87.35;99620.81;5087937;28;20236;-79
2022/07/07 07:23:09;;;;;;;3.72;3.17;;;;;;;23.47;84.61;99617.75;5071370;28;20260;-78
2022/07/07 07:25:36;;;;;;;5.00;3.33;;;;;;;23.36;83.96;99615.50;5094495;28;20765;-79
2022/07/07 07:28:02;;;;;;;3.50;3.15;;;;;;;23.28;84.11;99611.56;5085868;28;20228;-79
2022/07/07 07:30:29;;;;;;;5.50;3.08;;;;;;;23.02;88.00;99613.97;5082953;28;20232;-78
2022/07/07 07:32:56;;;;;;;4.20;2.92;;;;;;;22.78;88.83;99608.66;5089737;28;20286;-77
2022/07/07 07:35:23;;;;;;;3.20;3.00;;;;;;;22.85;90.37;99610.19;5090381;28;20654;-79
2022/07/07 07:37:49;;;;;;;3.70;3.35;;;;;;;23.13;89.83;99609.94;5087422;28;20219;-77
2022/07/07 07:40:16;;;;;;;3.30;3.00;;;;;;;23.41;87.71;99597.09;5089985;28;20260;-78
2022/07/07 07:42:42;;;;;;;3.15;2.90;;;;;;;23.75;77.61;99599.38;5088140;28;20225;-77
2022/07/07 07:45:09;;;;;;;4.25;3.10;;;;;;;23.96;72.90;99592.34;5090135;28;20254;-78
2022/07/07 07:47:44;;;;;;;2.83;2.55;;;;;;;24.02;70.12;99593.88;5091851;28;20231;-78
2022/07/07 07:50:14;;;;;;;2.72;2.53;;;;;;;23.98;67.79;99586.59;5088357;28;20237;-77
2022/07/07 07:52:42;;;;;;;4.35;2.90;;;;;;;24.02;70.21;99595.78;5090183;28;20234;-77
2022/07/07 07:55:10;;;;;;;2.90;2.60;;;;;;;24.09;71.60;99585.22;5089867;28;20735;-79
2022/07/07 07:57:37;;;;;;;2.90;2.70;;;;;;;24.21;68.01;99587.44;5073274;28;20743;-78
2022/07/07 08:00:06;;;;;;;2.72;2.33;;;;;;;24.46;69.64;99587.63;5096434;28;20645;-78
2022/07/07 08:02:37;;;;;;;3.88;2.95;;;;;;;24.93;62.36;99593.56;5076039;28;20278;-78
2022/07/07 08:05:04;;;;;;;2.65;2.28;;;;;;;25.26;61.39;99588.53;5095804;28;20236;-77
2022/07/07 08:07:32;;;;;;;3.00;2.40;;;;;;;25.60;55.88;99590.63;5107571;28;20219;-78
2022/07/07 08:10:00;;;;;;;3.30;1.98;;;;;;;26.01;50.60;99587.44;5099631;28;20282;-78
2022/07/07 08:12:26;;;;;;;3.85;2.08;;;;;;;26.57;44.78;99590.03;5099209;28;20234;-77
2022/07/07 08:14:53;;;;;;;1.80;1.70;;;;;;;26.84;36.38;99582.50;5106673;28;20687;-78
2022/07/07 08:17:20;;;;;;;2.90;1.67;;;;;;;26.92;33.88;99576.22;5098304;28;20249;-78
2022/07/07 08:19:47;;;;;;;4.85;1.80;;;;;;;26.72;33.86;99580.44;5075132;28;20215;-77
2022/07/07 08:22:14;;;;;;;1.83;1.50;;;;;;;26.59;33.99;99582.28;5101637;28;20227;-78
2022/07/07 08:24:41;;;;;;;1.80;1.52;;;;;;;26.53;33.69;99574.50;5097909;28;20233;-77
2022/07/07 08:27:07;;;;;;;5.47;1.50;;;;;;;26.35;34.13;99575.66;5075113;28;20276;-79
2022/07/07 08:29:38;;;;;;;2.20;1.50;;;;;;;26.22;33.82;99566.47;5085059;28;20235;-78
2022/07/07 08:32:06;;;;;;;1.80;1.48;;;;;;;26.32;34.98;99573.59;5096616;28;20258;-78
2022/07/07 08:34:34;;;;;;;1.90;1.60;;;;;;;26.35;34.62;99572.94;5080439;28;20316;-77
2022/07/07 08:37:08;;;;;;;2.80;1.70;;;;;;;26.39;33.99;99566.47;5099845;28;20323;-79
2022/07/07 08:39:34;;;;;;;1.60;1.50;;;;;;;26.43;34.39;99564.66;5104826;28;20323;-78
2022/07/07 08:42:01;;;;;;;1.98;1.70;;;;;;;26.39;33.25;99573.88;5094796;28;20325;-77
2022/07/07 08:44:28;;;;;;;1.63;1.40;;;;;;;26.61;33.88;99573.69;5100101;28;20235;-80
2022/07/07 08:46:54;;;;;;;2.17;1.50;;;;;;;26.59;33.55;99571.28;5096108;28;20289;-78
2022/07/07 08:49:21;;;;;;;3.53;1.50;;;;;;;27.17;32.96;99572.53;5094518;28;20273;-77
2022/07/07 08:51:48;;;;;;;2.45;1.50;;;;;;;27.46;33.35;99569.00;5091683;28;20273;-78
2022/07/07 08:54:16;;;;;;;2.55;1.63;;;;;;;27.83;32.90;99553.56;5079322;28;20772;-79
2022/07/07 08:56:43;;;;;;;2.22;1.67;;;;;;;27.69;32.17;99572.28;5105445;28;20265;-77
2022/07/07 08:59:13;;;;;;;1.75;1.60;;;;;;;27.24;31.48;99575.59;5071610;28;20285;-79
2022/07/07 09:01:40;;;;;;;1.65;1.50;;;;;;;27.41;32.16;99580.19;5076428;28;20250;-77
2022/07/07 09:04:07;;;;;;;1.90;1.42;;;;;;;27.67;32.15;99578.13;5075751;28;20260;-78
2022/07/07 09:06:34;;;;;;;2.35;1.40;;;;;;;27.63;31.49;99581.88;5097068;28;20263;-78
2022/07/07 09:09:03;;;;;;;2.65;1.50;;;;;;;27.26;32.15;99592.56;5095890;28;20225;-79
2022/07/07 09:11:32;;;;;;;4.72;1.67;;;;;;;26.98;30.69;99592.19;5080658;28;20474;-78
2022/07/07 09:14:14;;;;;;;1.58;1.48;;;;;;;27.14;30.69;99601.53;5082206;28;20232;-79
2022/07/07 09:16:41;;;;;;;2.95;1.63;;;;;;;27.25;30.77;99595.66;5093796;28;20229;-78
2022/07/07 09:19:18;;;;;;;2.10;1.80;;;;;;;27.18;31.63;99596.16;5092174;28;20238;-79
2022/07/07 09:21:47;;;;;;;1.73;1.63;;;;;;;26.76;31.83;99605.31;5089759;28;20296;-79
2022/07/07 09:24:13;;;;;;;3.70;1.65;;;;;;;26.52;31.89;99608.59;5093133;28;20247;-78
2022/07/07 09:26:42;;;;;;;3.85;1.95;;;;;;;26.41;32.32;99593.59;5081392;28;20231;-78
2022/07/07 09:29:13;;;;;;;3.45;1.75;;;;;;;25.46;34.58;99595.38;5086606;28;20286;-78
2022/07/07 09:31:59;;;;;;;1.92;1.80;;;;;;;25.43;35.19;99608.59;5099118;28;20325;-78
2022/07/07 09:34:28;;;;;;;2.15;1.65;;;;;;;24.97;35.78;99609.06;5067502;28;20268;-78
2022/07/07 09:40:02;;;;;;;2.85;1.70;;;;;;;24.33;36.72;99615.06;5024193;28;20266;-80
2022/07/07 09:42:36;;;;;;;3.38;1.63;;;;;;;24.31;36.94;99620.06;5035397;28;20243;-78
2022/07/07 09:45:05;;;;;;;1.83;1.73;;;;;;;24.09;37.17;99627.09;5071969;28;20235;-78
2022/07/07 09:47:35;;;;;;;2.75;2.05;;;;;;;23.94;37.24;99619.22;5090677;28;20275;-78
2022/07/07 09:50:12;;;;;;;1.98;1.80;;;;;;;23.96;36.66;99630.66;5075006;28;20264;-78
2022/07/07 09:52:41;;;;;;;2.97;1.83;;;;;;;24.01;37.57;99627.81;5068236;28;20221;-78
2022/07/07 09:55:10;;;;;;;2.42;1.73;;;;;;;24.02;36.57;99629.44;5088237;28;20249;-78
2022/07/07 09:57:39;;;;;;;2.00;1.80;;;;;;;24.02;37.33;99621.25;5095609;28;20236;-78
2022/07/07 10:00:06;;;;;;;1.50;1.40;;;;;;;23.84;36.20;99627.66;5092262;28;20237;-79
2022/07/07 10:02:39;;;;;;;2.10;1.90;;;;;;;23.81;36.05;99625.53;5091226;28;20322;-78
2022/07/07 10:05:06;;;;;;;2.55;1.70;;;;;;;23.90;36.38;99622.88;5069379;28;20767;-78
2022/07/07 10:07:34;;;;;;;2.00;1.80;;;;;;;23.83;35.98;99620.56;5096709;28;21196;-79
2022/07/07 10:10:06;;;;;;;3.78;1.90;;;;;;;23.99;36.93;99624.56;5054148;28;20618;-78
2022/07/07 10:12:33;;;;;;;2.10;1.90;;;;;;;24.06;36.72;99622.22;5093531;28;20721;-78
2022/07/07 10:15:05;;;;;;;2.55;1.77;;;;;;;24.02;37.94;99623.97;5073397;28;20314;-78
2022/07/07 10:17:31;;;;;;;3.20;1.92;;;;;;;24.14;36.80;99626.97;5093312;28;20227;-79
2022/07/07 10:19:58;;;;;;;4.50;2.10;;;;;;;24.26;37.00;99629.22;5070302;28;20742;-79
2022/07/07 10:22:28;;;;;;;2.45;2.00;;;;;;;24.41;36.13;99626.09;5100581;28;20683;-79
2022/07/07 10:24:56;;;;;;;2.63;1.83;;;;;;;24.38;36.38;99629.44;5076360;28;20275;-79
2022/07/07 10:27:24;;;;;;;3.20;2.03;;;;;;;24.45;36.94;99631.78;5086775;28;20350;-79
2022/07/07 10:29:55;;;;;;;2.33;1.73;;;;;;;24.55;36.90;99629.56;5069020;28;20245;-79
2022/07/07 10:32:40;;;;;;;2.67;1.77;;;;;;;24.50;36.57;99632.44;5074550;28;20237;-79
2022/07/07 10:35:08;;;;;;;1.90;1.80;;;;;;;24.49;36.56;99639.06;5062688;28;20229;-78
2022/07/07 10:37:46;;;;;;;2.05;1.90;;;;;;;24.54;36.10;99629.91;5096427;28;20235;-77
2022/07/07 10:40:18;;;;;;;2.97;1.90;;;;;;;24.57;36.88;99640.22;5085438;28;20226;-78
2022/07/07 10:43:10;;;;;;;2.08;1.70;;;;;;;24.39;36.33;99627.53;5085929;28;20228;-78
2022/07/07 10:45:48;;;;;;;3.22;1.85;;;;;;;24.00;36.72;99628.13;5091199;28;20225;-78
2022/07/07 10:48:46;;;;;;;2.33;1.92;;;;;;;24.16;37.75;99639.53;5076890;28;20250;-78
2022/07/07 10:51:14;;;;;;;1.95;1.73;;;;;;;24.49;36.75;99641.78;5068741;28;20225;-78
2022/07/07 10:54:03;;;;;;;3.15;1.90;;;;;;;24.66;36.35;99637.53;5083144;28;20735;-78
2022/07/07 10:56:59;;;;;;;2.42;1.75;;;;;;;24.76;37.75;99635.34;5093734;28;20224;-79
2022/07/07 10:59:26;;;;;;;2.13;1.92;;;;;;;24.75;37.50;99627.44;5070118;28;20232;-78
2022/07/07 11:02:02;;;;;;;2.22;2.00;;;;;;;24.62;37.41;99637.34;5099878;28;20264;-78
2022/07/07 11:04:41;;;;;;;3.70;1.90;;;;;;;24.54;37.53;99633.41;5082820;28;20279;-78
2022/07/07 11:07:11;;;;;;;3.10;1.98;;;;;;;24.50;38.71;99632.44;5088576;28;20261;-78
2022/07/07 11:09:57;;;;;;;3.83;1.95;;;;;;;24.33;38.38;99621.34;5078629;28;20351;-78
2022/07/07 11:12:44;;;;;;;2.50;1.88;;;;;;;24.48;38.36;99628.41;5081495;28;20243;-78
2022/07/07 11:15:24;;;;;;;4.45;1.88;;;;;;;24.40;38.48;99632.66;5093058;28;20638;-77
2022/07/07 11:17:56;;;;;;;2.28;2.08;;;;;;;24.01;38.66;99624.28;5078233;28;20306;-77
2022/07/07 11:20:27;;;;;;;5.30;2.10;;;;;;;23.88;39.29;99633.31;5090192;28;20232;-77
2022/07/07 11:23:05;;;;;;;3.33;2.15;;;;;;;23.86;39.68;99627.34;5079477;28;20229;-76
2022/07/07 11:25:32;;;;;;;3.70;2.03;;;;;;;23.59;40.22;99644.59;5073590;28;20360;-77
2022/07/07 11:27:59;;;;;;;2.33;1.80;;;;;;;23.57;40.45;99642.16;5090180;28;20252;-78
2022/07/07 11:30:26;;;;;;;3.70;2.03;;;;;;;23.76;40.05;99643.97;5067818;28;20592;-77
2022/07/07 11:32:56;;;;;;;2.47;2.17;;;;;;;23.67;40.87;99625.53;5083371;28;20304;-78
2022/07/07 11:35:23;;;;;;;5.10;2.15;;;;;;;23.64;40.83;99631.63;5088282;28;20604;-78
2022/07/07 11:37:49;;;;;;;3.55;2.15;;;;;;;23.77;41.21;99645.59;5089301;28;20659;-78